Terminal Aerodrome Forecast
Issued by NWS Wilmington, OH

Current Version | Previous Version | Text Only | Print | Product List | Glossary Off
Versions: 1 2 3 4 5 6 7 8 9 10 11 12 13 14 15 16 17 18 19 20 21 22 23

000
FTUS41 KILN 290530
TAFDAY
TAF
KDAY 290530Z 2906/3006 36008KT 4SM BR OVC008
     FM291400 30005KT P6SM BKN015
     FM291800 33008KT P6SM BKN035
     FM292300 03006KT P6SM SCT045=

USA.gov is the U.S. government's official web portal to all federal, state and local government web resources and services.